Pontotoc, Texas
Current Conditions -  °F | °C
As of 4:35 AM on Friday 19 Dec 2014 (Local Time) from KAQO Reporting Station
Haze Haze  
Wind Chill: 44°   Ceiling: 1000
Heat Index: 48°   Visibility: 5mi
Dew Point: 46°   Wind: 10mph
Humidity: 93%   Direction: 340°NNW
Pressure: 30.16"   Gusts: NA
Location:  30.91°N, 98.98°W
Report Text: KAQO 191035Z AUTO 34009KT 5SM BR FEW001 OVC010 09/08 A3016 RMK AO2 LTG DSNT ALQDS
Loading
Personal Weather Stations






























Interactive Weather Map New forecast layout! Learn more

10-Day Weather Forecast

Advertisements
Track Severe Weather on mobile